Norwegian Jade — C6WK7 — position and weather

sailwx.info

Track history (hours):
 
Tides and Currents Weather Stations Pressure Air Temp Water Temp Dewpoint Dewpoint Depression Visibility Wind Speed Wind Dir Waves Ship Positions

Norwegian Jade

Last reported at 2020-Sep-25 14:28 UTC. Time now 2020-Sep-25 15:26 UTC.
Position N 40°50' E 014°16'.

Length 294 m; draft 8.4 m.

Type: Passenger vessel. MMSI: 308416000.

Date/timePositionNaut miles runAvg speedWind from/ knotsBaromVisibWave heightAir tempDewpointWater temp
2020-Sep-25 14:28N 40°50' E 014°16'0 0.0
2020-Sep-25 13:58N 40°50' E 014°16'0 0.0
2020-Sep-25 13:28N 40°50' E 014°16'0 0.0
2020-Sep-25 08:28N 40°50' E 014°16'0 0.0
2020-Sep-25 07:28N 40°50' E 014°16'0 0.0
2020-Sep-25 06:58N 40°50' E 014°16'0 0.0
2020-Sep-25 05:58N 40°50' E 014°16'0 0.0
2020-Sep-25 03:58N 40°50' E 014°16'0 0.0
2020-Sep-25 00:25N 40°50' E 014°16'0 0.0
2020-Sep-24 16:58N 40°50' E 014°16'0 0.0
2020-Sep-24 15:58N 40°50' E 014°16'0 0.0
2020-Sep-24 15:28N 40°50' E 014°16'0 0.0
2020-Sep-24 13:58N 40°50' E 014°16'0 0.0
2020-Sep-24 07:28N 40°50' E 014°16'0 0.0
2020-Sep-24 06:25N 40°50' E 014°16'0 0.0
2020-Sep-24 05:28N 40°50' E 014°16'0 0.0
2020-Sep-24 02:58N 40°50' E 014°16'0 0.0
2020-Sep-24 02:28N 40°50' E 014°16'0 0.0
2020-Sep-24 01:58N 40°50' E 014°16'0 0.0
2020-Sep-23 21:25N 40°50' E 014°16'0 0.0
2020-Sep-23 19:58N 40°50' E 014°16'0 0.0
2020-Sep-23 19:25N 40°50' E 014°16'0 0.0
2020-Sep-23 19:22N 40°50' E 014°16'0 0.0
2020-Sep-23 18:58N 40°50' E 014°16'0 0.0
2020-Sep-23 14:58N 40°50' E 014°16'0 0.0
2020-Sep-23 13:58N 40°50' E 014°16'0 0.0
2020-Sep-23 11:58N 40°50' E 014°16'0 0.0
2020-Sep-23 10:58N 40°50' E 014°16'0 0.0
2020-Sep-23 10:28N 40°50' E 014°16'0 0.0
2020-Sep-23 01:58N 40°50' E 014°16'0 0.0
2020-Sep-22 22:58N 40°50' E 014°16'2 0.3
2020-Sep-22 16:30N 40°49' E 014°17'1 2.1
2020-Sep-22 16:00N 40°48' E 014°17'4 7.8
2020-Sep-22 15:30N 40°45' E 014°14'30 4.8
2020-Sep-22 09:17N 40°27' E 013°42'1410.9
2020-Sep-22 08:00N 40°34' E 013°58'611.2
2020-Sep-22 07:30N 40°38' E 014°03'611.3
2020-Sep-22 07:00N 40°42' E 014°09'10 4.9
2020-Sep-22 04:59N 40°50' E 014°16'0 0.0
2020-Sep-22 03:59N 40°50' E 014°16'0 0.0
2020-Sep-22 03:29N 40°50' E 014°16'0 0.0
2020-Sep-21 22:59N 40°50' E 014°16'0 0.0
2020-Sep-21 21:59N 40°50' E 014°16'0 0.0
2020-Sep-21 21:26N 40°50' E 014°16'0 0.0
2020-Sep-21 20:29N 40°50' E 014°16'0 0.0
2020-Sep-21 17:29N 40°50' E 014°16'0 0.0
2020-Sep-21 15:59N 40°50' E 014°16'0 0.0
2020-Sep-21 13:59N 40°50' E 014°16'0 0.0
2020-Sep-21 10:26N 40°50' E 014°16'0 0.0
2020-Sep-21 08:29N 40°50' E 014°16'0 0.0
2020-Sep-21 07:26N 40°50' E 014°16'0 0.0
2020-Sep-21 05:29N 40°50' E 014°16'0 0.0
2020-Sep-21 01:29N 40°50' E 014°16'0 0.0
2020-Sep-21 00:29N 40°50' E 014°16'0 0.0
2020-Sep-20 23:29N 40°50' E 014°16'0 0.0
2020-Sep-20 19:29N 40°50' E 014°16'0 0.0
2020-Sep-20 18:59N 40°50' E 014°16'0 0.0
2020-Sep-20 17:59N 40°50' E 014°16'0 0.0
2020-Sep-20 17:29N 40°50' E 014°16'0 0.0
2020-Sep-20 16:59N 40°50' E 014°16'0 0.0
2020-Sep-20 16:29N 40°50' E 014°16'0 0.0
2020-Sep-20 15:59N 40°50' E 014°16'0 0.0
2020-Sep-20 14:29N 40°50' E 014°16'0 0.0
2020-Sep-20 12:29N 40°50' E 014°16'0 0.0
2020-Sep-20 11:59N 40°50' E 014°16'0 0.0
2020-Sep-20 11:29N 40°50' E 014°16'0 0.0
2020-Sep-20 10:29N 40°50' E 014°16'0 0.0
2020-Sep-20 08:29N 40°50' E 014°16'0 0.0
2020-Sep-20 06:59N 40°50' E 014°16'0 0.0
2020-Sep-20 05:59N 40°50' E 014°16'0 0.0
2020-Sep-19 23:59N 40°50' E 014°16'0 0.0
2020-Sep-19 20:29N 40°50' E 014°16'0 0.0
2020-Sep-19 18:59N 40°50' E 014°16'0 0.0
2020-Sep-19 17:29N 40°50' E 014°16'0 0.0
2020-Sep-19 16:29N 40°50' E 014°16'0 0.0
2020-Sep-19 13:59N 40°50' E 014°16'0 0.0
2020-Sep-19 10:56N 40°50' E 014°16'0 0.0
2020-Sep-19 09:56N 40°50' E 014°16'0 0.0
2020-Sep-19 07:29N 40°50' E 014°16'0 0.0
2020-Sep-19 06:59N 40°50' E 014°16'0 0.0
2020-Sep-19 04:56N 40°50' E 014°16'0 0.0
2020-Sep-19 04:29N 40°50' E 014°16'0 0.0
2020-Sep-19 02:29N 40°50' E 014°16'0 0.0
2020-Sep-19 01:29N 40°50' E 014°16'0 0.0
2020-Sep-18 23:29N 40°50' E 014°16'0 0.0
2020-Sep-18 22:26N 40°50' E 014°16'0 0.0
2020-Sep-18 19:59N 40°50' E 014°16'0 0.0
2020-Sep-18 18:59N 40°50' E 014°16'0 0.0
2020-Sep-18 17:56N 40°50' E 014°16'0 0.0
2020-Sep-18 14:59N 40°50' E 014°16'0 0.0
2020-Sep-18 13:26N 40°50' E 014°16'0 0.0
2020-Sep-18 10:29N 40°50' E 014°16'0 0.0
2020-Sep-18 07:26N 40°50' E 014°16'0 0.0
2020-Sep-18 06:59N 40°50' E 014°16'0 0.0
2020-Sep-18 04:59N 40°50' E 014°16'0 0.0
2020-Sep-18 02:59N 40°50' E 014°16'0 0.0
2020-Sep-18 01:26N 40°50' E 014°16'0 0.0
2020-Sep-18 00:56N 40°50' E 014°16'0 0.0
2020-Sep-17 19:29N 40°50' E 014°16'0 0.0
2020-Sep-17 16:56N 40°50' E 014°16'0 0.0
2020-Sep-17 15:29N 40°50' E 014°15'0 0.1
2020-Sep-17 14:29N 40°50' E 014°15'0 0.0
2020-Sep-17 11:59N 40°50' E 014°15'0 0.0
2020-Sep-17 07:59N 40°50' E 014°15'0 0.0
2020-Sep-17 07:29N 40°50' E 014°15'0 0.0
2020-Sep-17 06:56N 40°50' E 014°15'0 0.0
2020-Sep-17 06:29N 40°50' E 014°15'0 0.0
2020-Sep-17 03:29N 40°50' E 014°15'0 0.0
2020-Sep-17 02:59N 40°50' E 014°15'0 0.0
2020-Sep-17 01:29N 40°50' E 014°15'0 0.0
2020-Sep-17 00:59N 40°50' E 014°15'0 0.0
2020-Sep-17 00:29N 40°50' E 014°15'0 0.0
2020-Sep-16 23:59N 40°50' E 014°15'0 0.0
2020-Sep-16 20:23N 40°50' E 014°15'0 0.0
2020-Sep-16 18:26N 40°50' E 014°15'0 0.0
2020-Sep-16 17:59N 40°50' E 014°15'0 0.0
2020-Sep-16 16:56N 40°50' E 014°15'0 0.0
2020-Sep-16 16:29N 40°50' E 014°15'0 0.0
2020-Sep-16 11:59N 40°50' E 014°15'0 0.0
2020-Sep-16 06:59N 40°50' E 014°15'0 0.0
2020-Sep-16 04:59N 40°50' E 014°15'0 0.0
2020-Sep-16 04:29N 40°50' E 014°15'0 0.0
2020-Sep-16 03:59N 40°50' E 014°15'0 0.0
2020-Sep-16 02:56N 40°50' E 014°15'0 0.0
2020-Sep-15 23:59N 40°50' E 014°15'0 0.0
2020-Sep-15 23:29N 40°50' E 014°15'0 0.0
2020-Sep-15 22:29N 40°50' E 014°15'0 0.0
2020-Sep-15 20:29N 40°50' E 014°15'  
Track history (hours):
 
Tides and Currents Weather Stations Pressure Air Temp Water Temp Dewpoint Dewpoint Depression Visibility Wind Speed Wind Dir Waves Ship Positions

Norwegian Jade

Last reported at 2020-Sep-25 14:28 UTC. Time now 2020-Sep-25 15:26 UTC.
Position N 40°50' E 014°16'.

Length 294 m; draft 8.4 m.

Type: Passenger vessel. MMSI: 308416000.

Date/timePositionNaut miles runAvg speedWind from/ knotsBaromVisibWave heightAir tempDewpointWater temp
2020-Sep-25 14:28N 40°50' E 014°16'0 0.0
2020-Sep-25 13:58N 40°50' E 014°16'0 0.0
2020-Sep-25 13:28N 40°50' E 014°16'0 0.0
2020-Sep-25 08:28N 40°50' E 014°16'0 0.0
2020-Sep-25 07:28N 40°50' E 014°16'0 0.0
2020-Sep-25 06:58N 40°50' E 014°16'0 0.0
2020-Sep-25 05:58N 40°50' E 014°16'0 0.0
2020-Sep-25 03:58N 40°50' E 014°16'0 0.0
2020-Sep-25 00:25N 40°50' E 014°16'0 0.0
2020-Sep-24 16:58N 40°50' E 014°16'0 0.0
2020-Sep-24 15:58N 40°50' E 014°16'0 0.0
2020-Sep-24 15:28N 40°50' E 014°16'0 0.0
2020-Sep-24 13:58N 40°50' E 014°16'0 0.0
2020-Sep-24 07:28N 40°50' E 014°16'0 0.0
2020-Sep-24 06:25N 40°50' E 014°16'0 0.0
2020-Sep-24 05:28N 40°50' E 014°16'0 0.0
2020-Sep-24 02:58N 40°50' E 014°16'0 0.0
2020-Sep-24 02:28N 40°50' E 014°16'0 0.0
2020-Sep-24 01:58N 40°50' E 014°16'0 0.0
2020-Sep-23 21:25N 40°50' E 014°16'0 0.0
2020-Sep-23 19:58N 40°50' E 014°16'0 0.0
2020-Sep-23 19:25N 40°50' E 014°16'0 0.0
2020-Sep-23 19:22N 40°50' E 014°16'0 0.0
2020-Sep-23 18:58N 40°50' E 014°16'0 0.0
2020-Sep-23 14:58N 40°50' E 014°16'0 0.0
2020-Sep-23 13:58N 40°50' E 014°16'0 0.0
2020-Sep-23 11:58N 40°50' E 014°16'0 0.0
2020-Sep-23 10:58N 40°50' E 014°16'0 0.0
2020-Sep-23 10:28N 40°50' E 014°16'0 0.0
2020-Sep-23 01:58N 40°50' E 014°16'0 0.0
2020-Sep-22 22:58N 40°50' E 014°16'2 0.3
2020-Sep-22 16:30N 40°49' E 014°17'1 2.1
2020-Sep-22 16:00N 40°48' E 014°17'4 7.8
2020-Sep-22 15:30N 40°45' E 014°14'30 4.8
2020-Sep-22 09:17N 40°27' E 013°42'1410.9
2020-Sep-22 08:00N 40°34' E 013°58'611.2
2020-Sep-22 07:30N 40°38' E 014°03'611.3
2020-Sep-22 07:00N 40°42' E 014°09'10 4.9
2020-Sep-22 04:59N 40°50' E 014°16'0 0.0
2020-Sep-22 03:59N 40°50' E 014°16'0 0.0
2020-Sep-22 03:29N 40°50' E 014°16'0 0.0
2020-Sep-21 22:59N 40°50' E 014°16'0 0.0
2020-Sep-21 21:59N 40°50' E 014°16'0 0.0
2020-Sep-21 21:26N 40°50' E 014°16'0 0.0
2020-Sep-21 20:29N 40°50' E 014°16'0 0.0
2020-Sep-21 17:29N 40°50' E 014°16'0 0.0
2020-Sep-21 15:59N 40°50' E 014°16'0 0.0
2020-Sep-21 13:59N 40°50' E 014°16'0 0.0
2020-Sep-21 10:26N 40°50' E 014°16'0 0.0
2020-Sep-21 08:29N 40°50' E 014°16'0 0.0
2020-Sep-21 07:26N 40°50' E 014°16'0 0.0
2020-Sep-21 05:29N 40°50' E 014°16'0 0.0
2020-Sep-21 01:29N 40°50' E 014°16'0 0.0
2020-Sep-21 00:29N 40°50' E 014°16'0 0.0
2020-Sep-20 23:29N 40°50' E 014°16'0 0.0
2020-Sep-20 19:29N 40°50' E 014°16'0 0.0
2020-Sep-20 18:59N 40°50' E 014°16'0 0.0
2020-Sep-20 17:59N 40°50' E 014°16'0 0.0
2020-Sep-20 17:29N 40°50' E 014°16'0 0.0
2020-Sep-20 16:59N 40°50' E 014°16'0 0.0
2020-Sep-20 16:29N 40°50' E 014°16'0 0.0
2020-Sep-20 15:59N 40°50' E 014°16'0 0.0
2020-Sep-20 14:29N 40°50' E 014°16'0 0.0
2020-Sep-20 12:29N 40°50' E 014°16'0 0.0
2020-Sep-20 11:59N 40°50' E 014°16'0 0.0
2020-Sep-20 11:29N 40°50' E 014°16'0 0.0
2020-Sep-20 10:29N 40°50' E 014°16'0 0.0
2020-Sep-20 08:29N 40°50' E 014°16'0 0.0
2020-Sep-20 06:59N 40°50' E 014°16'0 0.0
2020-Sep-20 05:59N 40°50' E 014°16'0 0.0
2020-Sep-19 23:59N 40°50' E 014°16'0 0.0
2020-Sep-19 20:29N 40°50' E 014°16'0 0.0
2020-Sep-19 18:59N 40°50' E 014°16'0 0.0
2020-Sep-19 17:29N 40°50' E 014°16'0 0.0
2020-Sep-19 16:29N 40°50' E 014°16'0 0.0
2020-Sep-19 13:59N 40°50' E 014°16'0 0.0
2020-Sep-19 10:56N 40°50' E 014°16'0 0.0
2020-Sep-19 09:56N 40°50' E 014°16'0 0.0
2020-Sep-19 07:29N 40°50' E 014°16'0 0.0
2020-Sep-19 06:59N 40°50' E 014°16'0 0.0
2020-Sep-19 04:56N 40°50' E 014°16'0 0.0
2020-Sep-19 04:29N 40°50' E 014°16'0 0.0
2020-Sep-19 02:29N 40°50' E 014°16'0 0.0
2020-Sep-19 01:29N 40°50' E 014°16'0 0.0
2020-Sep-18 23:29N 40°50' E 014°16'0 0.0
2020-Sep-18 22:26N 40°50' E 014°16'0 0.0
2020-Sep-18 19:59N 40°50' E 014°16'0 0.0
2020-Sep-18 18:59N 40°50' E 014°16'0 0.0
2020-Sep-18 17:56N 40°50' E 014°16'0 0.0
2020-Sep-18 14:59N 40°50' E 014°16'0 0.0
2020-Sep-18 13:26N 40°50' E 014°16'0 0.0
2020-Sep-18 10:29N 40°50' E 014°16'0 0.0
2020-Sep-18 07:26N 40°50' E 014°16'0 0.0
2020-Sep-18 06:59N 40°50' E 014°16'0 0.0
2020-Sep-18 04:59N 40°50' E 014°16'0 0.0
2020-Sep-18 02:59N 40°50' E 014°16'0 0.0
2020-Sep-18 01:26N 40°50' E 014°16'0 0.0
2020-Sep-18 00:56N 40°50' E 014°16'0 0.0
2020-Sep-17 19:29N 40°50' E 014°16'0 0.0
2020-Sep-17 16:56N 40°50' E 014°16'0 0.0
2020-Sep-17 15:29N 40°50' E 014°15'0 0.1
2020-Sep-17 14:29N 40°50' E 014°15'0 0.0
2020-Sep-17 11:59N 40°50' E 014°15'0 0.0
2020-Sep-17 07:59N 40°50' E 014°15'0 0.0
2020-Sep-17 07:29N 40°50' E 014°15'0 0.0
2020-Sep-17 06:56N 40°50' E 014°15'0 0.0
2020-Sep-17 06:29N 40°50' E 014°15'0 0.0
2020-Sep-17 03:29N 40°50' E 014°15'0 0.0
2020-Sep-17 02:59N 40°50' E 014°15'0 0.0
2020-Sep-17 01:29N 40°50' E 014°15'0 0.0
2020-Sep-17 00:59N 40°50' E 014°15'0 0.0
2020-Sep-17 00:29N 40°50' E 014°15'0 0.0
2020-Sep-16 23:59N 40°50' E 014°15'0 0.0
2020-Sep-16 20:23N 40°50' E 014°15'0 0.0
2020-Sep-16 18:26N 40°50' E 014°15'0 0.0
2020-Sep-16 17:59N 40°50' E 014°15'0 0.0
2020-Sep-16 16:56N 40°50' E 014°15'0 0.0
2020-Sep-16 16:29N 40°50' E 014°15'0 0.0
2020-Sep-16 11:59N 40°50' E 014°15'0 0.0
2020-Sep-16 06:59N 40°50' E 014°15'0 0.0
2020-Sep-16 04:59N 40°50' E 014°15'0 0.0
2020-Sep-16 04:29N 40°50' E 014°15'0 0.0
2020-Sep-16 03:59N 40°50' E 014°15'0 0.0
2020-Sep-16 02:56N 40°50' E 014°15'0 0.0
2020-Sep-15 23:59N 40°50' E 014°15'0 0.0
2020-Sep-15 23:29N 40°50' E 014°15'0 0.0
2020-Sep-15 22:29N 40°50' E 014°15'0 0.0
2020-Sep-15 20:29N 40°50' E 014°15'  

Dump ship's entire track history